Terminal Aerodrome Forecast
Issued by NWS Denver/Boulder, CO

Home | Current Version | Previous Version | Text Only | Print | Product List | Glossary On
Versions: 1 2 3 4 5 6 7 8 9 10 11 12 13 14 15 16 17 18 19 20 21 22 23 24 25 26 27 28 29 30 31 32 33 34 35 36 37
000
FTUS45 KBOU 171120
TAFDEN
TAF
KDEN 171120Z 1712/1818 25007KT P6SM SKC
     FM171400 16007KT P6SM FEW220
     FM171700 08010KT P6SM SCT220
     FM171900 05012KT P6SM FEW140 BKN220
     FM172200 11014KT P6SM SCT100 BKN160
     FM180300 16014KT P6SM SCT100 BKN160
     FM180900 20013KT P6SM SCT120 BKN180
     FM181700 17006KT P6SM FEW120 BKN200=

USA.gov is the U.S. government's official web portal to all federal, state and local government web resources and services.